KSJC/SJC METAR and TAF weather

Enter ICAO airport designator
Station Type Date Time Source
KSJC METAR 2022/06/28 08:53 UTC NOAA

KSJC 280853Z AUTO 34005KT 10SM CLR 16/13 A3007 RMK AO2 SLP181 T01610128 50000 $


Station Type Date Time Source
KSJC Decoded METAR 2022/06/28 08:53 UTC NOAA

SAN JOSE INTERNATIONAL AIRPORT, CA, United States (KSJC) 37-22N 121-55W 25M
Jun 28, 2022 - 04:53 AM EDT / 2022.06.28 0853 UTC
Wind: from the NNW (340 degrees) at 6 MPH (5 KT):0
Visibility: 10 mile(s):0
Sky conditions: clear
Temperature: 61.0 F (16.1 C)
Dew Point: 55.0 F (12.8 C)
Relative Humidity: 80%
Pressure (altimeter): 30.07 in. Hg (1018 hPa)
Pressure tendency: 0.00 inches (0.0 hPa) higher than three hours ago
ob: KSJC 280853Z AUTO 34005KT 10SM CLR 16/13 A3007 RMK AO2 SLP181 T01610128 50000
cycle: 9

Station Type Date Time Source
KSJC TAF 2022/06/28 06:33 UTC NOAA

TAF KSJC 280531Z 2806/2906 32005KT P6SM FEW003
FM280900 32003KT P6SM SKC
FM282000 33013G20KT P6SM SKC
FM290500 33008KT P6SM SKC

Example: see airport list